Koun Maru — JK5556 — position and weather

sailwx.info

Track history (hours):
 
Tides and Currents Weather Stations Pressure Air Temp Water Temp Dewpoint Dewpoint Depression Visibility Wind Speed Wind Dir Waves Ship Positions

Koun Maru

Last reported at 2017-Feb-25 10:09 UTC. Time now 2017-Feb-26 10:41 UTC.
Position N 34°36' E 135°25'.

Length 40 m.

Type: Tanker. MMSI: 431401871.

Date/timePositionNaut miles runAvg speedWind from/ knotsBaromVisibWave heightAir tempDewpointWater temp
2017-Feb-25 10:09N 34°36' E 135°25'5 7.7
2017-Feb-25 09:30N 34°36' E 135°18'9 9.5
2017-Feb-25 08:33N 34°36' E 135°08'  
2017-Feb-22 04:12N 34°37' E 135°06'6 8.7
2017-Feb-22 03:33N 34°40' E 135°12'4 1.1
2017-Feb-22 00:20N 34°42' E 135°15'0 0.0
2017-Feb-21 23:14N 34°42' E 135°15'0 0.2
2017-Feb-21 22:33N 34°42' E 135°15'6 0.3
2017-Feb-21 02:31N 34°40' E 135°22'5 5.1
2017-Feb-21 01:29N 34°41' E 135°15'0 0.0
2017-Feb-21 00:33N 34°41' E 135°15'1 0.9
2017-Feb-20 23:33N 34°41' E 135°16'7 0.3
2017-Feb-20 02:09N 34°39' E 135°24'3 0.2
2017-Feb-19 10:25N 34°38' E 135°27'10 9.8
2017-Feb-19 09:25N 34°31' E 135°19'23 0.8
2017-Feb-18 05:11N 34°11' E 135°05'26 9.9
2017-Feb-18 02:33N 34°36' E 135°15'6 5.7
2017-Feb-18 01:30N 34°42' E 135°16'0 0.2
2017-Feb-18 00:18N 34°42' E 135°16'0 0.4
2017-Feb-17 23:33N 34°42' E 135°15'4 4.0
2017-Feb-17 22:33N 34°39' E 135°12'0 0.0
2017-Feb-17 21:29N 34°39' E 135°12'0 0.0
2017-Feb-17 20:29N 34°39' E 135°12'0 0.0
2017-Feb-17 19:29N 34°39' E 135°12'0 0.0
2017-Feb-17 18:23N 34°39' E 135°12'0 0.0
2017-Feb-17 17:29N 34°39' E 135°12'4 4.6
2017-Feb-17 16:33N 34°38' E 135°07'2 0.0
2017-Feb-16 07:05N 34°37' E 135°09'14 1.7
2017-Feb-15 22:33N 34°37' E 135°26'  
Track history (hours):
 
Tides and Currents Weather Stations Pressure Air Temp Water Temp Dewpoint Dewpoint Depression Visibility Wind Speed Wind Dir Waves Ship Positions

Koun Maru

Last reported at 2017-Feb-25 10:09 UTC. Time now 2017-Feb-26 10:41 UTC.
Position N 34°36' E 135°25'.

Length 40 m.

Type: Tanker. MMSI: 431401871.

Date/timePositionNaut miles runAvg speedWind from/ knotsBaromVisibWave heightAir tempDewpointWater temp
2017-Feb-25 10:09N 34°36' E 135°25'5 7.7
2017-Feb-25 09:30N 34°36' E 135°18'9 9.5
2017-Feb-25 08:33N 34°36' E 135°08'  
2017-Feb-22 04:12N 34°37' E 135°06'6 8.7
2017-Feb-22 03:33N 34°40' E 135°12'4 1.1
2017-Feb-22 00:20N 34°42' E 135°15'0 0.0
2017-Feb-21 23:14N 34°42' E 135°15'0 0.2
2017-Feb-21 22:33N 34°42' E 135°15'6 0.3
2017-Feb-21 02:31N 34°40' E 135°22'5 5.1
2017-Feb-21 01:29N 34°41' E 135°15'0 0.0
2017-Feb-21 00:33N 34°41' E 135°15'1 0.9
2017-Feb-20 23:33N 34°41' E 135°16'7 0.3
2017-Feb-20 02:09N 34°39' E 135°24'3 0.2
2017-Feb-19 10:25N 34°38' E 135°27'10 9.8
2017-Feb-19 09:25N 34°31' E 135°19'23 0.8
2017-Feb-18 05:11N 34°11' E 135°05'26 9.9
2017-Feb-18 02:33N 34°36' E 135°15'6 5.7
2017-Feb-18 01:30N 34°42' E 135°16'0 0.2
2017-Feb-18 00:18N 34°42' E 135°16'0 0.4
2017-Feb-17 23:33N 34°42' E 135°15'4 4.0
2017-Feb-17 22:33N 34°39' E 135°12'0 0.0
2017-Feb-17 21:29N 34°39' E 135°12'0 0.0
2017-Feb-17 20:29N 34°39' E 135°12'0 0.0
2017-Feb-17 19:29N 34°39' E 135°12'0 0.0
2017-Feb-17 18:23N 34°39' E 135°12'0 0.0
2017-Feb-17 17:29N 34°39' E 135°12'4 4.6
2017-Feb-17 16:33N 34°38' E 135°07'2 0.0
2017-Feb-16 07:05N 34°37' E 135°09'14 1.7
2017-Feb-15 22:33N 34°37' E 135°26'  

Dump ship's entire track history